sensor_id;sensor_type;location;lat;lon;timestamp;P1;durP1;ratioP1;P2;durP2;ratioP2
39324;SDS011;25037;49.488;9.900;2022-09-02T00:00:50;4.88;;;3.47;;
39324;SDS011;25037;49.488;9.900;2022-09-02T00:03:17;4.70;;;3.40;;
39324;SDS011;25037;49.488;9.900;2022-09-02T00:05:43;5.05;;;4.00;;
39324;SDS011;25037;49.488;9.900;2022-09-02T00:08:09;8.05;;;3.60;;
39324;SDS011;25037;49.488;9.900;2022-09-02T00:10:37;5.35;;;3.15;;
39324;SDS011;25037;49.488;9.900;2022-09-02T00:13:05;4.57;;;3.60;;
39324;SDS011;25037;49.488;9.900;2022-09-02T00:15:32;4.47;;;3.50;;
39324;SDS011;25037;49.488;9.900;2022-09-02T00:17:58;5.45;;;3.45;;
39324;SDS011;25037;49.488;9.900;2022-09-02T00:20:24;5.00;;;3.55;;
39324;SDS011;25037;49.488;9.900;2022-09-02T00:22:50;6.00;;;4.00;;
39324;SDS011;25037;49.488;9.900;2022-09-02T00:25:16;5.32;;;3.60;;
39324;SDS011;25037;49.488;9.900;2022-09-02T00:27:41;7.00;;;3.53;;
39324;SDS011;25037;49.488;9.900;2022-09-02T00:30:07;6.88;;;3.88;;
39324;SDS011;25037;49.488;9.900;2022-09-02T00:32:33;4.13;;;3.60;;
39324;SDS011;25037;49.488;9.900;2022-09-02T00:34:59;6.03;;;4.18;;
39324;SDS011;25037;49.488;9.900;2022-09-02T00:37:25;8.02;;;4.30;;
39324;SDS011;25037;49.488;9.900;2022-09-02T00:39:51;6.15;;;4.15;;
39324;SDS011;25037;49.488;9.900;2022-09-02T00:42:18;4.80;;;3.97;;
39324;SDS011;25037;49.488;9.900;2022-09-02T00:44:45;5.80;;;4.50;;
39324;SDS011;25037;49.488;9.900;2022-09-02T00:47:11;5.53;;;4.28;;
39324;SDS011;25037;49.488;9.900;2022-09-02T00:49:38;6.70;;;4.22;;
39324;SDS011;25037;49.488;9.900;2022-09-02T00:52:09;6.00;;;4.60;;
39324;SDS011;25037;49.488;9.900;2022-09-02T00:54:51;6.15;;;4.15;;
39324;SDS011;25037;49.488;9.900;2022-09-02T00:57:20;4.25;;;3.65;;
39324;SDS011;25037;49.488;9.900;2022-09-02T01:00:11;6.13;;;4.85;;
39324;SDS011;25037;49.488;9.900;2022-09-02T01:02:39;7.07;;;4.50;;
39324;SDS011;25037;49.488;9.900;2022-09-02T01:05:10;6.13;;;4.47;;
39324;SDS011;25037;49.488;9.900;2022-09-02T01:07:37;5.57;;;4.50;;
39324;SDS011;25037;49.488;9.900;2022-09-02T01:10:05;5.90;;;4.28;;
39324;SDS011;25037;49.488;9.900;2022-09-02T01:12:32;5.82;;;4.43;;
39324;SDS011;25037;49.488;9.900;2022-09-02T01:14:59;5.28;;;4.13;;
39324;SDS011;25037;49.488;9.900;2022-09-02T01:17:26;8.00;;;4.53;;
39324;SDS011;25037;49.488;9.900;2022-09-02T01:20:03;5.63;;;4.80;;
39324;SDS011;25037;49.488;9.900;2022-09-02T01:22:32;5.85;;;4.38;;
39324;SDS011;25037;49.488;9.900;2022-09-02T01:24:59;5.35;;;4.45;;
39324;SDS011;25037;49.488;9.900;2022-09-02T01:27:30;4.82;;;3.95;;
39324;SDS011;25037;49.488;9.900;2022-09-02T01:29:57;5.65;;;4.75;;
39324;SDS011;25037;49.488;9.900;2022-09-02T01:32:25;5.30;;;4.43;;
39324;SDS011;25037;49.488;9.900;2022-09-02T01:34:52;5.20;;;4.00;;
39324;SDS011;25037;49.488;9.900;2022-09-02T01:37:18;4.95;;;4.30;;
39324;SDS011;25037;49.488;9.900;2022-09-02T01:39:44;5.82;;;4.30;;
39324;SDS011;25037;49.488;9.900;2022-09-02T01:42:11;5.90;;;4.45;;
39324;SDS011;25037;49.488;9.900;2022-09-02T01:44:36;5.60;;;4.55;;
39324;SDS011;25037;49.488;9.900;2022-09-02T01:47:08;5.38;;;3.88;;
39324;SDS011;25037;49.488;9.900;2022-09-02T01:49:35;4.95;;;4.30;;
39324;SDS011;25037;49.488;9.900;2022-09-02T01:52:00;6.35;;;4.45;;
39324;SDS011;25037;49.488;9.900;2022-09-02T01:54:26;6.72;;;4.68;;
39324;SDS011;25037;49.488;9.900;2022-09-02T01:56:52;4.22;;;3.78;;
39324;SDS011;25037;49.488;9.900;2022-09-02T01:59:17;4.97;;;3.80;;
39324;SDS011;25037;49.488;9.900;2022-09-02T02:01:44;4.88;;;4.20;;
39324;SDS011;25037;49.488;9.900;2022-09-02T02:04:11;5.30;;;4.22;;
39324;SDS011;25037;49.488;9.900;2022-09-02T02:06:40;5.30;;;3.80;;
39324;SDS011;25037;49.488;9.900;2022-09-02T02:09:08;8.00;;;4.20;;
39324;SDS011;25037;49.488;9.900;2022-09-02T02:11:36;7.03;;;4.93;;
39324;SDS011;25037;49.488;9.900;2022-09-02T02:14:02;4.78;;;4.15;;
39324;SDS011;25037;49.488;9.900;2022-09-02T02:16:29;5.68;;;4.78;;
39324;SDS011;25037;49.488;9.900;2022-09-02T02:18:54;5.43;;;4.50;;
39324;SDS011;25037;49.488;9.900;2022-09-02T02:21:20;4.85;;;4.25;;
39324;SDS011;25037;49.488;9.900;2022-09-02T02:23:46;6.40;;;4.43;;
39324;SDS011;25037;49.488;9.900;2022-09-02T02:26:12;6.90;;;4.45;;
39324;SDS011;25037;49.488;9.900;2022-09-02T02:28:38;5.80;;;4.38;;
39324;SDS011;25037;49.488;9.900;2022-09-02T02:31:03;6.53;;;4.97;;
39324;SDS011;25037;49.488;9.900;2022-09-02T02:33:30;5.60;;;4.95;;
39324;SDS011;25037;49.488;9.900;2022-09-02T02:35:56;9.70;;;5.43;;
39324;SDS011;25037;49.488;9.900;2022-09-02T02:38:22;6.90;;;4.20;;
39324;SDS011;25037;49.488;9.900;2022-09-02T02:40:48;7.13;;;4.72;;
39324;SDS011;25037;49.488;9.900;2022-09-02T02:43:14;5.03;;;4.30;;
39324;SDS011;25037;49.488;9.900;2022-09-02T02:45:40;6.65;;;4.40;;
39324;SDS011;25037;49.488;9.900;2022-09-02T02:48:06;6.57;;;4.90;;
39324;SDS011;25037;49.488;9.900;2022-09-02T02:50:32;6.20;;;4.75;;
39324;SDS011;25037;49.488;9.900;2022-09-02T02:52:57;7.28;;;4.63;;
39324;SDS011;25037;49.488;9.900;2022-09-02T02:55:25;6.65;;;4.35;;
39324;SDS011;25037;49.488;9.900;2022-09-02T02:57:51;5.80;;;4.68;;
39324;SDS011;25037;49.488;9.900;2022-09-02T03:00:24;7.70;;;5.55;;
39324;SDS011;25037;49.488;9.900;2022-09-02T03:02:56;5.90;;;4.80;;
39324;SDS011;25037;49.488;9.900;2022-09-02T03:05:29;6.45;;;4.95;;
39324;SDS011;25037;49.488;9.900;2022-09-02T03:07:54;4.82;;;4.32;;
39324;SDS011;25037;49.488;9.900;2022-09-02T03:10:20;6.15;;;4.50;;
39324;SDS011;25037;49.488;9.900;2022-09-02T03:12:47;6.10;;;5.30;;
39324;SDS011;25037;49.488;9.900;2022-09-02T03:15:14;5.28;;;4.75;;
39324;SDS011;25037;49.488;9.900;2022-09-02T03:17:47;4.90;;;4.40;;
39324;SDS011;25037;49.488;9.900;2022-09-02T03:20:13;5.72;;;4.70;;
39324;SDS011;25037;49.488;9.900;2022-09-02T03:22:40;5.35;;;4.47;;
39324;SDS011;25037;49.488;9.900;2022-09-02T03:25:08;5.93;;;4.40;;
39324;SDS011;25037;49.488;9.900;2022-09-02T03:27:36;6.68;;;4.57;;
39324;SDS011;25037;49.488;9.900;2022-09-02T03:30:03;5.07;;;3.92;;
39324;SDS011;25037;49.488;9.900;2022-09-02T03:32:30;5.38;;;4.30;;
39324;SDS011;25037;49.488;9.900;2022-09-02T03:34:56;5.60;;;4.35;;
39324;SDS011;25037;49.488;9.900;2022-09-02T03:37:21;7.40;;;5.00;;
39324;SDS011;25037;49.488;9.900;2022-09-02T03:39:47;5.20;;;4.30;;
39324;SDS011;25037;49.488;9.900;2022-09-02T03:42:13;5.32;;;4.60;;
39324;SDS011;25037;49.488;9.900;2022-09-02T03:44:39;6.00;;;4.57;;
39324;SDS011;25037;49.488;9.900;2022-09-02T03:47:05;6.45;;;4.75;;
39324;SDS011;25037;49.488;9.900;2022-09-02T03:49:32;8.45;;;4.80;;
39324;SDS011;25037;49.488;9.900;2022-09-02T03:51:58;6.97;;;4.03;;
39324;SDS011;25037;49.488;9.900;2022-09-02T03:54:24;8.18;;;4.43;;
39324;SDS011;25037;49.488;9.900;2022-09-02T03:56:50;4.90;;;4.40;;
39324;SDS011;25037;49.488;9.900;2022-09-02T03:59:15;5.63;;;4.75;;
39324;SDS011;25037;49.488;9.900;2022-09-02T04:01:41;8.00;;;5.22;;
39324;SDS011;25037;49.488;9.900;2022-09-02T04:04:07;5.70;;;3.90;;
39324;SDS011;25037;49.488;9.900;2022-09-02T04:06:32;5.25;;;4.53;;
39324;SDS011;25037;49.488;9.900;2022-09-02T04:08:58;5.30;;;3.80;;
39324;SDS011;25037;49.488;9.900;2022-09-02T04:11:24;5.55;;;4.55;;
39324;SDS011;25037;49.488;9.900;2022-09-02T04:13:51;6.65;;;4.00;;
39324;SDS011;25037;49.488;9.900;2022-09-02T04:16:18;4.97;;;4.43;;
39324;SDS011;25037;49.488;9.900;2022-09-02T04:18:51;7.18;;;4.40;;
39324;SDS011;25037;49.488;9.900;2022-09-02T04:21:17;5.72;;;4.65;;
39324;SDS011;25037;49.488;9.900;2022-09-02T04:23:43;5.00;;;4.03;;
39324;SDS011;25037;49.488;9.900;2022-09-02T04:26:10;5.03;;;4.00;;
39324;SDS011;25037;49.488;9.900;2022-09-02T04:28:37;5.28;;;3.97;;
39324;SDS011;25037;49.488;9.900;2022-09-02T04:31:07;5.07;;;4.03;;
39324;SDS011;25037;49.488;9.900;2022-09-02T04:33:35;5.30;;;3.80;;
39324;SDS011;25037;49.488;9.900;2022-09-02T04:36:05;5.57;;;3.70;;
39324;SDS011;25037;49.488;9.900;2022-09-02T04:38:32;7.32;;;4.22;;
39324;SDS011;25037;49.488;9.900;2022-09-02T04:40:58;6.22;;;3.97;;
39324;SDS011;25037;49.488;9.900;2022-09-02T04:43:23;5.90;;;4.82;;
39324;SDS011;25037;49.488;9.900;2022-09-02T04:45:49;4.45;;;3.53;;
39324;SDS011;25037;49.488;9.900;2022-09-02T04:48:15;5.28;;;3.60;;
39324;SDS011;25037;49.488;9.900;2022-09-02T04:50:43;7.20;;;3.90;;
39324;SDS011;25037;49.488;9.900;2022-09-02T04:53:10;7.10;;;3.90;;
39324;SDS011;25037;49.488;9.900;2022-09-02T04:55:39;5.47;;;3.63;;
39324;SDS011;25037;49.488;9.900;2022-09-02T04:58:06;6.43;;;4.15;;
39324;SDS011;25037;49.488;9.900;2022-09-02T05:00:32;6.03;;;3.80;;
39324;SDS011;25037;49.488;9.900;2022-09-02T05:02:58;4.47;;;3.67;;
39324;SDS011;25037;49.488;9.900;2022-09-02T05:05:23;8.95;;;3.55;;
39324;SDS011;25037;49.488;9.900;2022-09-02T05:07:49;5.43;;;3.72;;
39324;SDS011;25037;49.488;9.900;2022-09-02T05:10:15;6.85;;;3.83;;
39324;SDS011;25037;49.488;9.900;2022-09-02T05:12:41;7.63;;;4.88;;
39324;SDS011;25037;49.488;9.900;2022-09-02T05:15:07;5.95;;;3.95;;
39324;SDS011;25037;49.488;9.900;2022-09-02T05:17:34;5.20;;;3.95;;
39324;SDS011;25037;49.488;9.900;2022-09-02T05:20:03;5.70;;;3.67;;
39324;SDS011;25037;49.488;9.900;2022-09-02T05:22:30;4.38;;;3.80;;
39324;SDS011;25037;49.488;9.900;2022-09-02T05:24:57;5.70;;;3.70;;
39324;SDS011;25037;49.488;9.900;2022-09-02T05:27:22;4.95;;;3.75;;
39324;SDS011;25037;49.488;9.900;2022-09-02T05:29:48;5.18;;;3.40;;
39324;SDS011;25037;49.488;9.900;2022-09-02T05:32:14;6.15;;;4.10;;
39324;SDS011;25037;49.488;9.900;2022-09-02T05:34:39;6.93;;;4.55;;
39324;SDS011;25037;49.488;9.900;2022-09-02T05:37:05;6.85;;;4.50;;
39324;SDS011;25037;49.488;9.900;2022-09-02T05:39:31;5.22;;;3.67;;
39324;SDS011;25037;49.488;9.900;2022-09-02T05:41:57;8.05;;;3.70;;
39324;SDS011;25037;49.488;9.900;2022-09-02T05:44:22;7.55;;;3.75;;
39324;SDS011;25037;49.488;9.900;2022-09-02T05:46:48;5.90;;;3.65;;
39324;SDS011;25037;49.488;9.900;2022-09-02T05:49:13;5.65;;;3.95;;
39324;SDS011;25037;49.488;9.900;2022-09-02T05:51:52;4.25;;;3.63;;
39324;SDS011;25037;49.488;9.900;2022-09-02T05:54:27;4.75;;;3.53;;
39324;SDS011;25037;49.488;9.900;2022-09-02T05:56:55;6.65;;;3.50;;
39324;SDS011;25037;49.488;9.900;2022-09-02T05:59:23;5.30;;;3.40;;
39324;SDS011;25037;49.488;9.900;2022-09-02T06:01:51;4.55;;;3.47;;
39324;SDS011;25037;49.488;9.900;2022-09-02T06:04:17;4.38;;;3.47;;
39324;SDS011;25037;49.488;9.900;2022-09-02T06:06:44;5.05;;;3.92;;
39324;SDS011;25037;49.488;9.900;2022-09-02T06:09:11;5.63;;;3.38;;
39324;SDS011;25037;49.488;9.900;2022-09-02T06:11:41;4.10;;;3.15;;
39324;SDS011;25037;49.488;9.900;2022-09-02T06:14:11;8.63;;;4.95;;
39324;SDS011;25037;49.488;9.900;2022-09-02T06:16:38;4.22;;;3.38;;
39324;SDS011;25037;49.488;9.900;2022-09-02T06:19:04;4.05;;;3.10;;
39324;SDS011;25037;49.488;9.900;2022-09-02T06:21:30;4.45;;;3.00;;
39324;SDS011;25037;49.488;9.900;2022-09-02T06:23:56;4.18;;;3.47;;
39324;SDS011;25037;49.488;9.900;2022-09-02T06:26:22;4.68;;;3.20;;
39324;SDS011;25037;49.488;9.900;2022-09-02T06:28:48;4.90;;;3.08;;
39324;SDS011;25037;49.488;9.900;2022-09-02T06:31:15;5.38;;;2.92;;
39324;SDS011;25037;49.488;9.900;2022-09-02T06:33:43;4.03;;;3.08;;
39324;SDS011;25037;49.488;9.900;2022-09-02T06:36:12;4.45;;;3.03;;
39324;SDS011;25037;49.488;9.900;2022-09-02T06:38:41;4.95;;;3.03;;
39324;SDS011;25037;49.488;9.900;2022-09-02T06:41:12;5.28;;;2.67;;
39324;SDS011;25037;49.488;9.900;2022-09-02T06:43:39;4.47;;;2.85;;
39324;SDS011;25037;49.488;9.900;2022-09-02T06:46:05;3.67;;;2.70;;
39324;SDS011;25037;49.488;9.900;2022-09-02T06:48:32;7.68;;;2.85;;
39324;SDS011;25037;49.488;9.900;2022-09-02T06:50:57;4.00;;;3.00;;
39324;SDS011;25037;49.488;9.900;2022-09-02T06:53:25;3.97;;;2.13;;
39324;SDS011;25037;49.488;9.900;2022-09-02T06:55:51;7.47;;;2.70;;
39324;SDS011;25037;49.488;9.900;2022-09-02T06:58:17;4.78;;;2.35;;
39324;SDS011;25037;49.488;9.900;2022-09-02T07:00:43;4.85;;;2.60;;
39324;SDS011;25037;49.488;9.900;2022-09-02T07:03:09;3.50;;;2.35;;
39324;SDS011;25037;49.488;9.900;2022-09-02T07:06:01;3.58;;;2.00;;
39324;SDS011;25037;49.488;9.900;2022-09-02T07:08:28;4.63;;;2.10;;
39324;SDS011;25037;49.488;9.900;2022-09-02T07:10:54;3.03;;;1.70;;
39324;SDS011;25037;49.488;9.900;2022-09-02T07:13:20;4.07;;;2.33;;
39324;SDS011;25037;49.488;9.900;2022-09-02T07:15:45;5.35;;;1.90;;
39324;SDS011;25037;49.488;9.900;2022-09-02T07:18:11;4.07;;;2.20;;
39324;SDS011;25037;49.488;9.900;2022-09-02T07:20:36;3.67;;;2.17;;
39324;SDS011;25037;49.488;9.900;2022-09-02T07:23:02;6.45;;;2.15;;
39324;SDS011;25037;49.488;9.900;2022-09-02T07:25:28;3.28;;;2.03;;
39324;SDS011;25037;49.488;9.900;2022-09-02T07:27:54;2.75;;;1.67;;
39324;SDS011;25037;49.488;9.900;2022-09-02T07:30:20;2.95;;;1.70;;
39324;SDS011;25037;49.488;9.900;2022-09-02T07:32:46;3.85;;;2.15;;
39324;SDS011;25037;49.488;9.900;2022-09-02T07:35:11;3.13;;;1.90;;
39324;SDS011;25037;49.488;9.900;2022-09-02T07:37:37;4.65;;;2.15;;
39324;SDS011;25037;49.488;9.900;2022-09-02T07:40:04;2.63;;;1.73;;
39324;SDS011;25037;49.488;9.900;2022-09-02T07:42:31;4.43;;;1.77;;
39324;SDS011;25037;49.488;9.900;2022-09-02T07:44:57;4.07;;;1.73;;
39324;SDS011;25037;49.488;9.900;2022-09-02T07:47:23;4.82;;;1.95;;
39324;SDS011;25037;49.488;9.900;2022-09-02T07:49:48;4.70;;;1.80;;
39324;SDS011;25037;49.488;9.900;2022-09-02T07:52:14;3.83;;;1.48;;
39324;SDS011;25037;49.488;9.900;2022-09-02T07:54:40;3.55;;;1.40;;
39324;SDS011;25037;49.488;9.900;2022-09-02T07:57:06;3.40;;;1.30;;
39324;SDS011;25037;49.488;9.900;2022-09-02T07:59:32;3.08;;;1.20;;
39324;SDS011;25037;49.488;9.900;2022-09-02T08:01:59;2.80;;;1.40;;
39324;SDS011;25037;49.488;9.900;2022-09-02T08:04:26;5.22;;;1.48;;
39324;SDS011;25037;49.488;9.900;2022-09-02T08:06:52;3.35;;;1.30;;
39324;SDS011;25037;49.488;9.900;2022-09-02T08:09:18;3.28;;;1.02;;
39324;SDS011;25037;49.488;9.900;2022-09-02T08:11:45;2.55;;;1.25;;
39324;SDS011;25037;49.488;9.900;2022-09-02T08:14:14;2.38;;;1.13;;
39324;SDS011;25037;49.488;9.900;2022-09-02T08:16:43;1.52;;;0.60;;
39324;SDS011;25037;49.488;9.900;2022-09-02T08:19:10;3.35;;;1.13;;
39324;SDS011;25037;49.488;9.900;2022-09-02T08:21:37;3.55;;;1.17;;
39324;SDS011;25037;49.488;9.900;2022-09-02T08:24:02;5.38;;;1.77;;
39324;SDS011;25037;49.488;9.900;2022-09-02T08:26:28;1.90;;;0.50;;
39324;SDS011;25037;49.488;9.900;2022-09-02T08:28:54;1.80;;;0.90;;
39324;SDS011;25037;49.488;9.900;2022-09-02T08:31:20;1.77;;;0.70;;
39324;SDS011;25037;49.488;9.900;2022-09-02T08:33:45;2.42;;;0.73;;
39324;SDS011;25037;49.488;9.900;2022-09-02T08:36:11;2.25;;;0.70;;
39324;SDS011;25037;49.488;9.900;2022-09-02T08:38:39;2.55;;;0.80;;
39324;SDS011;25037;49.488;9.900;2022-09-02T08:43:55;1.48;;;0.50;;
39324;SDS011;25037;49.488;9.900;2022-09-02T08:46:23;1.77;;;0.85;;
39324;SDS011;25037;49.488;9.900;2022-09-02T08:48:52;4.40;;;0.73;;
39324;SDS011;25037;49.488;9.900;2022-09-02T08:51:57;1.33;;;0.50;;
39324;SDS011;25037;49.488;9.900;2022-09-02T08:54:21;2.45;;;0.65;;
39324;SDS011;25037;49.488;9.900;2022-09-02T08:56:59;2.13;;;0.60;;
39324;SDS011;25037;49.488;9.900;2022-09-02T08:59:25;1.98;;;0.75;;
39324;SDS011;25037;49.488;9.900;2022-09-02T09:02:00;1.83;;;0.50;;
39324;SDS011;25037;49.488;9.900;2022-09-02T09:07:37;2.40;;;0.82;;
39324;SDS011;25037;49.488;9.900;2022-09-02T09:16:02;3.30;;;0.60;;
39324;SDS011;25037;49.488;9.900;2022-09-02T09:18:54;2.08;;;0.50;;
39324;SDS011;25037;49.488;9.900;2022-09-02T09:21:25;1.95;;;0.80;;
39324;SDS011;25037;49.488;9.900;2022-09-02T09:23:53;2.95;;;0.82;;
39324;SDS011;25037;49.488;9.900;2022-09-02T09:26:21;5.47;;;1.05;;
39324;SDS011;25037;49.488;9.900;2022-09-02T09:28:52;1.83;;;0.70;;
39324;SDS011;25037;49.488;9.900;2022-09-02T09:31:20;1.95;;;0.68;;
39324;SDS011;25037;49.488;9.900;2022-09-02T09:39:22;1.75;;;0.60;;
39324;SDS011;25037;49.488;9.900;2022-09-02T09:42:26;1.83;;;0.50;;
39324;SDS011;25037;49.488;9.900;2022-09-02T09:44:53;3.15;;;0.80;;
39324;SDS011;25037;49.488;9.900;2022-09-02T09:47:20;1.65;;;0.70;;
39324;SDS011;25037;49.488;9.900;2022-09-02T09:49:50;3.03;;;0.95;;
39324;SDS011;25037;49.488;9.900;2022-09-02T09:52:21;2.20;;;0.80;;
39324;SDS011;25037;49.488;9.900;2022-09-02T09:57:38;1.60;;;0.60;;
39324;SDS011;25037;49.488;9.900;2022-09-02T10:00:19;1.75;;;0.60;;
39324;SDS011;25037;49.488;9.900;2022-09-02T10:02:57;1.65;;;0.70;;
39324;SDS011;25037;49.488;9.900;2022-09-02T10:05:27;2.47;;;0.73;;
39324;SDS011;25037;49.488;9.900;2022-09-02T10:08:17;3.60;;;0.95;;
39324;SDS011;25037;49.488;9.900;2022-09-02T10:13:42;3.70;;;1.30;;
39324;SDS011;25037;49.488;9.900;2022-09-02T10:16:15;1.60;;;0.60;;
39324;SDS011;25037;49.488;9.900;2022-09-02T10:21:39;2.17;;;0.60;;
39324;SDS011;25037;49.488;9.900;2022-09-02T10:27:07;1.38;;;0.60;;
39324;SDS011;25037;49.488;9.900;2022-09-02T10:29:57;1.42;;;0.55;;
39324;SDS011;25037;49.488;9.900;2022-09-02T10:32:59;2.55;;;0.98;;
39324;SDS011;25037;49.488;9.900;2022-09-02T10:35:40;3.05;;;0.63;;
39324;SDS011;25037;49.488;9.900;2022-09-02T10:44:09;3.28;;;0.70;;
39324;SDS011;25037;49.488;9.900;2022-09-02T10:57:31;1.65;;;0.47;;
39324;SDS011;25037;49.488;9.900;2022-09-02T11:00:07;2.30;;;0.63;;
39324;SDS011;25037;49.488;9.900;2022-09-02T11:05:17;1.00;;;0.50;;
39324;SDS011;25037;49.488;9.900;2022-09-02T11:08:00;2.83;;;0.50;;
39324;SDS011;25037;49.488;9.900;2022-09-02T11:10:42;1.85;;;0.63;;
39324;SDS011;25037;49.488;9.900;2022-09-02T11:13:13;2.58;;;0.50;;
39324;SDS011;25037;49.488;9.900;2022-09-02T11:15:55;1.77;;;0.40;;
39324;SDS011;25037;49.488;9.900;2022-09-02T11:18:32;1.42;;;0.50;;
39324;SDS011;25037;49.488;9.900;2022-09-02T11:21:54;2.08;;;0.50;;
39324;SDS011;25037;49.488;9.900;2022-09-02T11:24:01;1.92;;;0.60;;
39324;SDS011;25037;49.488;9.900;2022-09-02T11:26:35;1.27;;;0.60;;
39324;SDS011;25037;49.488;9.900;2022-09-02T11:29:31;2.20;;;0.70;;
39324;SDS011;25037;49.488;9.900;2022-09-02T11:32:06;2.28;;;1.23;;
39324;SDS011;25037;49.488;9.900;2022-09-02T11:34:44;3.97;;;0.70;;
39324;SDS011;25037;49.488;9.900;2022-09-02T11:37:22;3.88;;;0.65;;
39324;SDS011;25037;49.488;9.900;2022-09-02T11:40:04;1.60;;;0.60;;
39324;SDS011;25037;49.488;9.900;2022-09-02T11:54:13;2.15;;;0.65;;
39324;SDS011;25037;49.488;9.900;2022-09-02T11:56:43;0.88;;;0.50;;
39324;SDS011;25037;49.488;9.900;2022-09-02T11:59:21;1.42;;;0.47;;
39324;SDS011;25037;49.488;9.900;2022-09-02T12:02:08;5.68;;;1.20;;
39324;SDS011;25037;49.488;9.900;2022-09-02T12:04:35;1.30;;;0.60;;
39324;SDS011;25037;49.488;9.900;2022-09-02T12:23:06;2.40;;;0.90;;
39324;SDS011;25037;49.488;9.900;2022-09-02T12:28:15;1.45;;;0.50;;
39324;SDS011;25037;49.488;9.900;2022-09-02T12:35:58;1.55;;;0.50;;
39324;SDS011;25037;49.488;9.900;2022-09-02T12:38:32;1.40;;;0.50;;
39324;SDS011;25037;49.488;9.900;2022-09-02T12:43:45;1.35;;;0.60;;
39324;SDS011;25037;49.488;9.900;2022-09-02T12:51:54;2.70;;;0.60;;
39324;SDS011;25037;49.488;9.900;2022-09-02T12:54:23;1.23;;;0.47;;
39324;SDS011;25037;49.488;9.900;2022-09-02T12:57:05;2.55;;;0.65;;
39324;SDS011;25037;49.488;9.900;2022-09-02T12:59:33;2.55;;;0.50;;
39324;SDS011;25037;49.488;9.900;2022-09-02T13:07:54;1.38;;;0.55;;
39324;SDS011;25037;49.488;9.900;2022-09-02T13:21:45;2.50;;;0.38;;
39324;SDS011;25037;49.488;9.900;2022-09-02T13:32:55;1.67;;;0.40;;
39324;SDS011;25037;49.488;9.900;2022-09-02T13:35:29;1.73;;;0.52;;
39324;SDS011;25037;49.488;9.900;2022-09-02T13:37:58;1.80;;;0.40;;
39324;SDS011;25037;49.488;9.900;2022-09-02T13:42:55;1.27;;;0.43;;
39324;SDS011;25037;49.488;9.900;2022-09-02T13:45:26;1.15;;;0.55;;
39324;SDS011;25037;49.488;9.900;2022-09-02T13:47:54;2.60;;;0.50;;
39324;SDS011;25037;49.488;9.900;2022-09-02T13:50:26;1.67;;;0.47;;
39324;SDS011;25037;49.488;9.900;2022-09-02T13:52:55;1.35;;;0.73;;
39324;SDS011;25037;49.488;9.900;2022-09-02T13:55:25;4.65;;;0.98;;
39324;SDS011;25037;49.488;9.900;2022-09-02T13:58:05;0.63;;;0.30;;
39324;SDS011;25037;49.488;9.900;2022-09-02T14:03:20;1.70;;;0.40;;
39324;SDS011;25037;49.488;9.900;2022-09-02T14:05:47;1.00;;;0.40;;
39324;SDS011;25037;49.488;9.900;2022-09-02T14:08:17;2.25;;;0.50;;
39324;SDS011;25037;49.488;9.900;2022-09-02T14:10:45;0.90;;;0.30;;
39324;SDS011;25037;49.488;9.900;2022-09-02T14:13:13;1.48;;;0.32;;
39324;SDS011;25037;49.488;9.900;2022-09-02T14:15:40;1.80;;;0.50;;
39324;SDS011;25037;49.488;9.900;2022-09-02T14:18:10;2.55;;;0.32;;
39324;SDS011;25037;49.488;9.900;2022-09-02T14:20:56;6.18;;;0.52;;
39324;SDS011;25037;49.488;9.900;2022-09-02T14:23:46;1.77;;;0.43;;
39324;SDS011;25037;49.488;9.900;2022-09-02T14:26:20;1.13;;;0.52;;
39324;SDS011;25037;49.488;9.900;2022-09-02T14:28:51;1.92;;;0.40;;
39324;SDS011;25037;49.488;9.900;2022-09-02T14:31:24;2.13;;;1.15;;
39324;SDS011;25037;49.488;9.900;2022-09-02T14:33:54;1.40;;;0.60;;
39324;SDS011;25037;49.488;9.900;2022-09-02T14:38:51;1.88;;;0.40;;
39324;SDS011;25037;49.488;9.900;2022-09-02T14:41:21;1.10;;;0.30;;
39324;SDS011;25037;49.488;9.900;2022-09-02T14:43:59;0.95;;;0.63;;
39324;SDS011;25037;49.488;9.900;2022-09-02T14:46:35;1.17;;;0.43;;
39324;SDS011;25037;49.488;9.900;2022-09-02T14:51:48;1.48;;;0.30;;
39324;SDS011;25037;49.488;9.900;2022-09-02T14:54:35;1.23;;;0.40;;
39324;SDS011;25037;49.488;9.900;2022-09-02T14:57:03;0.93;;;0.45;;
39324;SDS011;25037;49.488;9.900;2022-09-02T14:59:52;1.15;;;0.63;;
39324;SDS011;25037;49.488;9.900;2022-09-02T15:02:23;1.17;;;0.40;;
39324;SDS011;25037;49.488;9.900;2022-09-02T15:04:53;1.77;;;0.50;;
39324;SDS011;25037;49.488;9.900;2022-09-02T15:07:19;1.90;;;0.40;;
39324;SDS011;25037;49.488;9.900;2022-09-02T15:09:45;1.60;;;0.40;;
39324;SDS011;25037;49.488;9.900;2022-09-02T15:12:11;1.90;;;0.57;;
39324;SDS011;25037;49.488;9.900;2022-09-02T15:14:38;1.17;;;0.40;;
39324;SDS011;25037;49.488;9.900;2022-09-02T15:17:05;1.95;;;0.47;;
39324;SDS011;25037;49.488;9.900;2022-09-02T15:19:39;1.48;;;0.30;;
39324;SDS011;25037;49.488;9.900;2022-09-02T15:22:05;1.45;;;0.50;;
39324;SDS011;25037;49.488;9.900;2022-09-02T15:24:30;1.17;;;0.50;;
39324;SDS011;25037;49.488;9.900;2022-09-02T15:26:56;2.15;;;0.40;;
39324;SDS011;25037;49.488;9.900;2022-09-02T15:29:22;0.80;;;0.40;;
39324;SDS011;25037;49.488;9.900;2022-09-02T15:31:50;0.88;;;0.40;;
39324;SDS011;25037;49.488;9.900;2022-09-02T15:34:17;1.50;;;0.45;;
39324;SDS011;25037;49.488;9.900;2022-09-02T15:36:44;1.63;;;0.65;;
39324;SDS011;25037;49.488;9.900;2022-09-02T15:39:10;2.03;;;0.50;;
39324;SDS011;25037;49.488;9.900;2022-09-02T15:41:36;2.22;;;0.60;;
39324;SDS011;25037;49.488;9.900;2022-09-02T15:44:03;2.10;;;0.57;;
39324;SDS011;25037;49.488;9.900;2022-09-02T15:46:32;1.58;;;0.60;;
39324;SDS011;25037;49.488;9.900;2022-09-02T15:49:04;1.33;;;0.45;;
39324;SDS011;25037;49.488;9.900;2022-09-02T15:51:32;2.13;;;0.50;;
39324;SDS011;25037;49.488;9.900;2022-09-02T15:54:00;1.70;;;0.55;;
39324;SDS011;25037;49.488;9.900;2022-09-02T15:56:33;0.60;;;0.30;;
39324;SDS011;25037;49.488;9.900;2022-09-02T15:59:01;3.40;;;0.40;;
39324;SDS011;25037;49.488;9.900;2022-09-02T16:01:35;1.80;;;0.50;;
39324;SDS011;25037;49.488;9.900;2022-09-02T16:04:03;2.17;;;0.52;;
39324;SDS011;25037;49.488;9.900;2022-09-02T16:06:30;2.20;;;0.50;;
39324;SDS011;25037;49.488;9.900;2022-09-02T16:08:57;2.88;;;0.60;;
39324;SDS011;25037;49.488;9.900;2022-09-02T16:11:23;2.05;;;0.55;;
39324;SDS011;25037;49.488;9.900;2022-09-02T16:13:49;2.17;;;0.50;;
39324;SDS011;25037;49.488;9.900;2022-09-02T16:16:15;1.95;;;0.40;;
39324;SDS011;25037;49.488;9.900;2022-09-02T16:18:42;1.40;;;0.40;;
39324;SDS011;25037;49.488;9.900;2022-09-02T16:21:09;2.25;;;0.50;;
39324;SDS011;25037;49.488;9.900;2022-09-02T16:23:36;1.65;;;0.40;;
39324;SDS011;25037;49.488;9.900;2022-09-02T16:26:05;2.13;;;0.75;;
39324;SDS011;25037;49.488;9.900;2022-09-02T16:28:33;1.58;;;0.60;;
39324;SDS011;25037;49.488;9.900;2022-09-02T16:31:03;4.07;;;0.77;;
39324;SDS011;25037;49.488;9.900;2022-09-02T16:33:29;1.85;;;0.73;;
39324;SDS011;25037;49.488;9.900;2022-09-02T16:35:55;0.90;;;0.40;;
39324;SDS011;25037;49.488;9.900;2022-09-02T16:38:21;2.25;;;0.40;;
39324;SDS011;25037;49.488;9.900;2022-09-02T16:40:53;1.63;;;0.50;;
39324;SDS011;25037;49.488;9.900;2022-09-02T16:43:20;1.38;;;0.43;;
39324;SDS011;25037;49.488;9.900;2022-09-02T16:45:46;2.13;;;0.30;;
39324;SDS011;25037;49.488;9.900;2022-09-02T16:48:16;3.40;;;0.50;;
39324;SDS011;25037;49.488;9.900;2022-09-02T16:50:43;2.10;;;0.50;;
39324;SDS011;25037;49.488;9.900;2022-09-02T16:53:09;1.35;;;0.50;;
39324;SDS011;25037;49.488;9.900;2022-09-02T16:55:38;1.35;;;0.40;;
39324;SDS011;25037;49.488;9.900;2022-09-02T16:58:05;2.55;;;0.50;;
39324;SDS011;25037;49.488;9.900;2022-09-02T17:00:31;1.75;;;0.40;;
39324;SDS011;25037;49.488;9.900;2022-09-02T17:02:56;1.58;;;0.50;;
39324;SDS011;25037;49.488;9.900;2022-09-02T17:05:22;1.52;;;0.85;;
39324;SDS011;25037;49.488;9.900;2022-09-02T17:07:47;1.27;;;0.50;;